Time;durP1;ratioP1;P1;durP2;ratioP2;P2;SDS_P1;SDS_P2;PMS_P1;PMS_P2;Temp;Humidity;BMP_temperature;BMP_pressure;BME280_temperature;BME280_humidity;BME280_pressure;Samples;Min_cycle;Max_cycle;Signal;HPM_P1;HPM_P2
2021/10/03 00:00:45;;;;;;;25.90;16.85;;;;;;;4.71;70.32;101662.91;5048253;28;20494;-56
2021/10/03 00:03:15;;;;;;;25.77;16.13;;;;;;;4.68;70.77;101659.44;5050727;28;20418;-56
2021/10/03 00:05:41;;;;;;;24.35;16.65;;;;;;;4.52;70.87;101635.13;5050792;28;20530;-55
2021/10/03 00:08:08;;;;;;;25.65;15.88;;;;;;;4.60;70.51;101651.72;5050374;28;20128;-55
2021/10/03 00:10:34;;;;;;;25.67;16.58;;;;;;;4.56;70.23;101663.28;5050216;28;20041;-55
2021/10/03 00:13:03;;;;;;;32.90;16.42;;;;;;;4.59;70.37;101666.75;5048422;28;20098;-53
2021/10/03 00:15:31;;;;;;;26.88;17.40;;;;;;;4.60;70.41;101663.19;5049039;28;20040;-57
2021/10/03 00:17:58;;;;;;;27.65;16.48;;;;;;;4.56;70.10;101660.66;5049152;28;20025;-56
2021/10/03 00:20:24;;;;;;;29.10;16.45;;;;;;;4.53;70.02;101658.97;5048432;28;20044;-57
2021/10/03 00:22:49;;;;;;;25.67;16.25;;;;;;;4.52;70.36;101648.38;5050245;28;20021;-53
2021/10/03 00:25:15;;;;;;;27.75;17.08;;;;;;;4.52;70.08;101651.91;5048205;28;20437;-57
2021/10/03 00:27:42;;;;;;;25.02;15.90;;;;;;;4.31;70.73;101632.09;5050066;28;20063;-55
2021/10/03 00:30:08;;;;;;;29.20;16.48;;;;;;;4.49;70.42;101661.72;5047489;28;20465;-58
2021/10/03 00:32:34;;;;;;;28.15;16.27;;;;;;;4.47;70.19;101655.59;5049726;28;20044;-56
2021/10/03 00:34:59;;;;;;;28.90;16.58;;;;;;;4.48;70.29;101654.69;5050056;28;20032;-52
2021/10/03 00:37:25;;;;;;;23.55;15.95;;;;;;;4.26;69.68;101613.69;5048692;28;20086;-50
2021/10/03 00:39:51;;;;;;;27.20;16.17;;;;;;;4.45;70.21;101645.00;5049745;28;20115;-51
2021/10/03 00:42:17;;;;;;;22.83;16.05;;;;;;;4.42;70.52;101643.31;5033895;28;20029;-51
2021/10/03 00:44:43;;;;;;;23.38;15.77;;;;;;;4.40;70.46;101646.91;5030328;28;20037;-50
2021/10/03 00:47:09;;;;;;;26.35;15.73;;;;;;;4.37;70.20;101655.84;5029897;28;20175;-50
2021/10/03 00:49:36;;;;;;;28.63;16.70;;;;;;;4.37;70.54;101662.91;5032094;28;20520;-56
2021/10/03 00:52:04;;;;;;;28.08;16.27;;;;;;;4.37;70.92;101661.13;5050551;28;20103;-55
2021/10/03 00:54:30;;;;;;;23.65;15.63;;;;;;;4.35;70.37;101655.00;5049382;28;20060;-56
2021/10/03 00:56:55;;;;;;;25.10;15.95;;;;;;;4.34;70.27;101655.03;5049768;28;20465;-56
2021/10/03 00:59:21;;;;;;;27.98;16.48;;;;;;;4.33;71.11;101646.19;5050012;28;20114;-55
2021/10/03 01:01:46;;;;;;;27.98;16.48;;;;;;;4.30;70.89;101651.56;5049013;28;20453;-57
2021/10/03 01:04:12;;;;;;;26.63;15.65;;;;;;;4.29;70.89;101639.22;5033250;28;20034;-51
2021/10/03 01:06:37;;;;;;;26.65;16.73;;;;;;;4.27;71.31;101647.25;5033328;28;20030;-51
2021/10/03 01:09:03;;;;;;;25.80;16.48;;;;;;;4.27;71.11;101651.66;5033024;28;20545;-51
2021/10/03 01:11:29;;;;;;;26.75;16.55;;;;;;;4.25;71.08;101648.16;5034325;28;20040;-55
2021/10/03 01:13:54;;;;;;;30.77;17.08;;;;;;;4.25;70.85;101648.16;5033749;28;20462;-54
2021/10/03 01:16:20;;;;;;;26.17;16.70;;;;;;;4.18;71.08;101631.53;5033865;28;20036;-54
2021/10/03 01:18:46;;;;;;;27.02;16.75;;;;;;;4.18;71.31;101633.34;5033531;28;20061;-58
2021/10/03 01:21:11;;;;;;;28.48;16.75;;;;;;;4.20;71.23;101642.97;5033454;28;20033;-55
2021/10/03 01:23:37;;;;;;;25.90;16.30;;;;;;;4.21;71.55;101643.84;5033600;28;20033;-55
2021/10/03 01:26:03;;;;;;;29.42;16.05;;;;;;;4.20;71.99;101637.66;5033128;28;20029;-55
2021/10/03 01:28:28;;;;;;;24.58;16.40;;;;;;;4.19;71.85;101646.53;5044255;28;20025;-57
2021/10/03 01:30:55;;;;;;;29.83;17.02;;;;;;;4.20;71.90;101639.47;5053617;28;20490;-56
2021/10/03 01:33:26;;;;;;;27.95;17.02;;;;;;;4.20;72.18;101632.38;5053495;28;20079;-57
2021/10/03 01:35:52;;;;;;;29.77;16.42;;;;;;;4.17;71.98;101637.75;5052524;28;20031;-56
2021/10/03 01:38:18;;;;;;;28.40;17.52;;;;;;;4.15;71.80;101634.28;5053016;28;20037;-53
2021/10/03 01:40:46;;;;;;;30.80;16.92;;;;;;;4.16;72.08;101641.31;5051434;28;20037;-53
2021/10/03 01:43:13;;;;;;;26.80;16.70;;;;;;;4.15;71.49;101647.53;5053327;28;20052;-53
2021/10/03 01:45:39;;;;;;;27.00;17.20;;;;;;;4.12;71.94;101640.53;5052404;28;20025;-54
2021/10/03 01:48:17;;;;;;;25.67;16.88;;;;;;;4.00;72.10;101615.19;5052926;28;20036;-54
2021/10/03 01:50:45;;;;;;;25.98;16.65;;;;;;;4.13;72.15;101638.75;5053037;28;20075;-54
2021/10/03 01:53:13;;;;;;;28.35;17.42;;;;;;;4.12;72.51;101642.31;5041958;28;20041;-56
2021/10/03 01:55:39;;;;;;;28.50;17.27;;;;;;;4.11;72.31;101643.22;5032591;28;20416;-55
2021/10/03 01:58:07;;;;;;;27.08;16.85;;;;;;;4.12;72.61;101642.31;5032347;28;20030;-53
2021/10/03 02:00:33;;;;;;;28.92;17.23;;;;;;;4.10;72.51;101642.34;5033105;28;20124;-56
2021/10/03 02:03:02;;;;;;;30.80;17.80;;;;;;;4.12;72.42;101642.31;5032010;28;20102;-55
2021/10/03 02:05:34;;;;;;;28.38;17.92;;;;;;;4.15;72.19;101644.88;5041122;28;20029;-52
2021/10/03 02:08:00;;;;;;;30.85;17.35;;;;;;;4.13;72.81;101639.63;5052041;28;20049;-54
2021/10/03 02:10:26;;;;;;;29.65;16.85;;;;;;;4.14;72.76;101646.66;5050718;28;20370;-55
2021/10/03 02:12:51;;;;;;;29.20;17.02;;;;;;;4.13;72.57;101650.22;5051734;28;20643;-52
2021/10/03 02:15:20;;;;;;;27.90;15.90;;;;;;;4.15;72.46;101655.47;5051082;28;20021;-54
2021/10/03 02:17:45;;;;;;;30.52;17.02;;;;;;;4.12;72.06;101647.59;5043990;28;20033;-55
2021/10/03 02:20:14;;;;;;;27.45;17.63;;;;;;;4.10;72.19;101647.66;5032089;28;20532;-55
2021/10/03 02:22:41;;;;;;;26.95;16.52;;;;;;;4.10;72.32;101649.41;5031906;28;20103;-57
2021/10/03 02:25:07;;;;;;;28.70;17.25;;;;;;;4.15;72.57;101653.72;5032602;28;20191;-57
2021/10/03 02:27:32;;;;;;;28.88;16.85;;;;;;;4.19;71.95;101648.34;5030780;28;20545;-56
2021/10/03 02:29:58;;;;;;;28.92;17.58;;;;;;;3.99;71.50;101602.84;5034567;28;20122;-55
2021/10/03 02:32:23;;;;;;;27.00;16.60;;;;;;;4.28;71.53;101645.44;5051983;28;20465;-55
2021/10/03 02:34:49;;;;;;;29.50;16.45;;;;;;;4.33;71.29;101651.50;5050438;28;20021;-53
2021/10/03 02:37:14;;;;;;;26.90;17.05;;;;;;;4.16;71.61;101609.50;5051311;28;20032;-54
2021/10/03 02:39:40;;;;;;;30.40;17.25;;;;;;;4.39;71.19;101650.47;5051833;28;20110;-56
2021/10/03 02:42:05;;;;;;;28.98;17.23;;;;;;;4.37;71.27;101637.28;5050454;28;20025;-52
2021/10/03 02:44:31;;;;;;;28.83;17.05;;;;;;;4.48;71.02;101646.72;5051097;28;20122;-52
2021/10/03 02:46:56;;;;;;;26.90;17.33;;;;;;;4.48;70.88;101639.66;5051833;28;20052;-55
2021/10/03 02:49:22;;;;;;;26.42;17.15;;;;;;;4.51;70.61;101641.34;5052082;28;20049;-52
2021/10/03 02:51:47;;;;;;;27.85;17.30;;;;;;;4.57;70.61;101636.75;5049906;28;20055;-55
2021/10/03 02:54:13;;;;;;;29.83;17.02;;;;;;;4.59;70.50;101636.72;5050021;28;20036;-54
2021/10/03 02:56:38;;;;;;;28.63;17.13;;;;;;;4.64;70.32;101633.91;5049919;28;20465;-55
2021/10/03 02:59:04;;;;;;;28.73;17.15;;;;;;;4.69;70.63;101635.53;5050711;28;20036;-54
2021/10/03 03:01:30;;;;;;;28.63;17.60;;;;;;;4.60;69.94;101618.09;5051203;28;20029;-55
2021/10/03 03:03:55;;;;;;;28.13;17.75;;;;;;;4.70;70.01;101634.63;5051339;28;20112;-50
2021/10/03 03:06:21;;;;;;;29.70;17.35;;;;;;;4.74;70.06;101646.91;5051748;28;20043;-54
2021/10/03 03:08:47;;;;;;;28.73;16.98;;;;;;;4.70;70.26;101645.25;5037178;28;20489;-55
2021/10/03 03:11:12;;;;;;;33.50;18.27;;;;;;;4.68;70.98;101646.19;5030635;28;20389;-50
2021/10/03 03:13:38;;;;;;;27.25;17.38;;;;;;;4.69;70.73;101658.53;5048293;28;20035;-56
2021/10/03 03:16:04;;;;;;;29.00;17.77;;;;;;;4.68;70.75;101651.50;5051478;28;20091;-56
2021/10/03 03:18:29;;;;;;;28.80;18.15;;;;;;;4.68;70.48;101660.34;5051339;28;20385;-52
2021/10/03 03:20:55;;;;;;;28.77;18.35;;;;;;;4.65;70.25;101635.66;5051264;28;20116;-53
2021/10/03 03:23:21;;;;;;;27.13;17.23;;;;;;;4.73;69.92;101653.13;5039282;28;20100;-54
2021/10/03 03:25:47;;;;;;;28.88;17.75;;;;;;;4.76;70.03;101652.19;5031690;28;20045;-54
2021/10/03 03:28:12;;;;;;;27.85;17.85;;;;;;;4.75;70.12;101655.75;5030881;28;20083;-56
2021/10/03 03:30:39;;;;;;;28.75;17.98;;;;;;;4.72;70.28;101647.88;5030865;28;20037;-53
2021/10/03 03:33:05;;;;;;;28.35;18.23;;;;;;;4.76;69.59;101646.00;5030754;28;20083;-56
2021/10/03 03:35:30;;;;;;;29.40;18.33;;;;;;;4.79;69.66;101656.50;5031968;28;20394;-55
2021/10/03 03:37:57;;;;;;;30.02;18.00;;;;;;;4.81;69.71;101652.91;5030142;28;20531;-53
2021/10/03 03:40:23;;;;;;;29.13;17.20;;;;;;;4.79;69.99;101641.47;5030734;28;20021;-55
2021/10/03 03:42:49;;;;;;;33.72;19.30;;;;;;;4.88;69.64;101646.53;5030789;28;20030;-51
2021/10/03 03:45:15;;;;;;;32.97;19.92;;;;;;;4.90;69.54;101638.53;5031499;28;20033;-56
2021/10/03 03:47:40;;;;;;;30.65;18.85;;;;;;;4.96;69.66;101642.81;5032259;28;20144;-55
2021/10/03 03:50:10;;;;;;;29.98;19.00;;;;;;;4.99;69.48;101632.09;5030715;28;20440;-56
2021/10/03 03:52:35;;;;;;;41.58;20.63;;;;;;;5.03;68.73;101626.63;5030433;28;20116;-54
2021/10/03 03:55:01;;;;;;;36.20;19.90;;;;;;;5.11;68.91;101638.84;5029737;28;20136;-54
2021/10/03 03:57:26;;;;;;;33.80;19.95;;;;;;;5.15;69.02;101645.81;5030558;28;20377;-55
2021/10/03 03:59:52;;;;;;;32.10;19.08;;;;;;;5.18;68.44;101653.69;5030189;28;20032;-54
2021/10/03 04:02:18;;;;;;;38.25;19.67;;;;;;;5.24;68.37;101658.81;5030314;28;20120;-53
2021/10/03 04:04:43;;;;;;;32.30;19.42;;;;;;;5.27;68.20;101650.75;5030576;28;20331;-55
2021/10/03 04:07:11;;;;;;;34.40;19.83;;;;;;;5.39;68.15;101652.16;5030314;28;20529;-55
2021/10/03 04:09:37;;;;;;;33.60;19.55;;;;;;;5.50;67.21;101659.81;5030241;28;20029;-54
2021/10/03 04:12:02;;;;;;;33.70;18.33;;;;;;;5.60;67.32;101656.00;5030298;28;20046;-54
2021/10/03 04:14:28;;;;;;;34.83;19.00;;;;;;;5.71;66.50;101657.44;5050171;28;20086;-54
2021/10/03 04:16:53;;;;;;;35.83;18.45;;;;;;;5.85;65.86;101652.56;5050050;28;20040;-56
2021/10/03 04:19:19;;;;;;;31.38;18.58;;;;;;;6.20;65.17;101656.81;5050114;28;20435;-53
2021/10/03 04:21:44;;;;;;;33.08;18.00;;;;;;;7.13;62.16;101643.88;5049150;28;20036;-54
2021/10/03 04:24:10;;;;;;;28.52;17.27;;;;;;;8.00;59.01;101640.50;5048485;28;20037;-55
2021/10/03 04:26:36;;;;;;;29.02;15.82;;;;;;;8.24;57.77;101642.25;5033522;28;20029;-53
2021/10/03 04:29:02;;;;;;;34.22;17.25;;;;;;;8.15;57.65;101649.69;5030345;28;20033;-55
2021/10/03 04:31:28;;;;;;;28.38;16.67;;;;;;;7.76;58.08;101615.72;5029821;28;20044;-56
2021/10/03 04:33:56;;;;;;;29.92;16.52;;;;;;;7.80;58.67;101644.00;5030254;28;20053;-56
2021/10/03 04:36:23;;;;;;;29.48;17.33;;;;;;;7.73;58.48;101647.84;5030363;28;20034;-54
2021/10/03 04:38:48;;;;;;;33.67;16.33;;;;;;;8.36;56.96;101647.06;5049350;28;20105;-52
2021/10/03 04:41:14;;;;;;;26.60;16.08;;;;;;;10.15;52.63;101649.69;5052739;28;20116;-57
2021/10/03 04:43:44;;;;;;;25.88;14.77;;;;;;;12.03;47.56;101639.78;5054151;28;20127;-53
2021/10/03 04:46:10;;;;;;;21.90;14.02;;;;;;;13.63;42.95;101633.72;5052912;28;20055;-55
2021/10/03 04:48:36;;;;;;;22.67;13.60;;;;;;;14.77;40.50;101629.78;5053327;28;20032;-56
2021/10/03 04:51:01;;;;;;;23.80;14.48;;;;;;;15.35;39.00;101621.19;5038688;28;20030;-57
2021/10/03 04:53:27;;;;;;;22.40;13.90;;;;;;;15.95;37.50;101625.91;5034276;28;20115;-55
2021/10/03 04:55:52;;;;;;;26.38;14.60;;;;;;;16.47;36.17;101631.03;5033307;28;20042;-56
2021/10/03 04:58:18;;;;;;;21.40;14.57;;;;;;;17.22;34.78;101634.28;5033505;28;20034;-59
2021/10/03 05:00:43;;;;;;;24.27;15.23;;;;;;;17.94;33.29;101635.63;5033995;28;20139;-55
2021/10/03 05:03:09;;;;;;;22.80;15.40;;;;;;;18.91;31.65;101635.69;5034971;28;20033;-55
2021/10/03 05:05:34;;;;;;;21.35;15.07;;;;;;;19.56;30.14;101639.97;5033197;28;20195;-56
2021/10/03 05:08:00;;;;;;;26.63;15.73;;;;;;;20.12;29.26;101643.97;5033060;28;20063;-51
2021/10/03 05:10:25;;;;;;;22.85;16.40;;;;;;;20.16;28.77;101639.97;5033837;28;20386;-55
2021/10/03 05:12:51;;;;;;;25.20;16.02;;;;;;;20.56;28.14;101639.97;5033836;28;20037;-55
2021/10/03 05:15:16;;;;;;;21.27;15.18;;;;;;;21.44;27.00;101647.00;5034067;28;20072;-54
2021/10/03 05:17:42;;;;;;;19.77;15.15;;;;;;;22.20;25.51;101648.59;5033330;28;20029;-54
2021/10/03 05:20:08;;;;;;;17.83;14.13;;;;;;;22.78;24.71;101659.13;5033952;28;20025;-58
2021/10/03 05:22:34;;;;;;;18.80;15.15;;;;;;;23.15;23.70;101651.66;5033451;28;20435;-58
2021/10/03 05:25:00;;;;;;;20.70;15.02;;;;;;;23.75;22.98;101642.56;5032903;28;20144;-57
2021/10/03 05:27:27;;;;;;;20.23;15.82;;;;;;;24.21;22.13;101657.72;5037152;28;20148;-57
2021/10/03 05:29:52;;;;;;;18.15;15.57;;;;;;;24.74;21.46;101647.28;5050703;28;20040;-55
2021/10/03 05:32:18;;;;;;;19.80;15.07;;;;;;;25.52;20.64;101649.50;5053487;28;20029;-53
2021/10/03 05:34:43;;;;;;;19.75;14.65;;;;;;;25.83;20.11;101647.78;5053367;28;20045;-58
2021/10/03 05:37:09;;;;;;;18.80;14.65;;;;;;;26.08;19.84;101652.09;5052886;28;20060;-58
2021/10/03 05:39:34;;;;;;;19.85;13.95;;;;;;;26.39;19.21;101655.84;5051090;28;20038;-58
2021/10/03 05:42:00;;;;;;;16.58;14.07;;;;;;;26.74;18.45;101645.22;5051977;28;20037;-55
2021/10/03 05:44:25;;;;;;;17.20;15.32;;;;;;;27.31;17.97;101637.41;5051925;28;20048;-57
2021/10/03 05:46:51;;;;;;;17.10;15.00;;;;;;;27.24;17.78;101655.69;5052625;28;20079;-53
2021/10/03 05:49:16;;;;;;;19.75;14.52;;;;;;;27.36;17.89;101639.56;5053524;28;20037;-56
2021/10/03 05:51:42;;;;;;;21.40;14.85;;;;;;;28.21;16.81;101636.34;5048736;28;20028;-55
2021/10/03 05:54:08;;;;;;;16.48;14.45;;;;;;;29.22;16.33;101637.13;5032413;28;20100;-54
2021/10/03 05:56:35;;;;;;;17.20;14.13;;;;;;;29.73;15.36;101627.56;5032137;28;20045;-57
2021/10/03 05:59:01;;;;;;;17.20;14.43;;;;;;;29.86;15.24;101609.34;5032303;28;20026;-54
2021/10/03 06:01:30;;;;;;;18.00;14.57;;;;;;;30.01;14.91;101631.25;5032447;28;20025;-56
2021/10/03 06:03:56;;;;;;;15.18;13.57;;;;;;;30.55;14.90;101650.66;5033344;28;20075;-55
2021/10/03 06:06:22;;;;;;;15.65;14.02;;;;;;;30.36;14.72;101633.84;5031160;28;20562;-56
2021/10/03 06:08:48;;;;;;;16.83;14.20;;;;;;;29.22;15.31;101626.91;5032748;28;20402;-56
2021/10/03 06:11:13;;;;;;;17.55;14.07;;;;;;;28.26;16.42;101631.09;5032297;28;20034;-59
2021/10/03 06:13:40;;;;;;;21.65;14.90;;;;;;;27.79;16.76;101628.69;5032136;28;20149;-56
2021/10/03 06:16:07;;;;;;;18.20;15.35;;;;;;;28.19;16.54;101631.03;5034892;28;20109;-58
2021/10/03 06:18:32;;;;;;;16.75;14.93;;;;;;;29.40;15.05;101643.97;5050364;28;20024;-58
2021/10/03 06:20:58;;;;;;;18.10;14.18;;;;;;;30.58;13.90;101617.06;5051779;28;20444;-54
2021/10/03 06:23:24;;;;;;;19.05;15.27;;;;;;;31.61;13.17;101625.75;5052489;28;20037;-59
2021/10/03 06:25:50;;;;;;;17.85;15.95;;;;;;;32.25;12.59;101641.53;5051957;28;20408;-57
2021/10/03 06:28:15;;;;;;;21.75;16.02;;;;;;;32.52;12.61;101641.34;5049800;28;20028;-55
2021/10/03 06:30:40;;;;;;;18.70;15.93;;;;;;;32.69;12.04;101639.69;5032025;28;20463;-54
2021/10/03 06:33:06;;;;;;;17.73;15.23;;;;;;;32.89;11.81;101633.13;5032369;28;20040;-58
2021/10/03 06:35:32;;;;;;;18.60;15.55;;;;;;;33.11;11.82;101621.59;5031164;28;20025;-56
2021/10/03 06:37:57;;;;;;;18.55;15.27;;;;;;;33.33;11.56;101639.47;5031658;28;20036;-58
2021/10/03 06:40:24;;;;;;;17.95;15.68;;;;;;;33.04;11.73;101644.72;5030521;28;20103;-55
2021/10/03 06:42:50;;;;;;;17.40;15.63;;;;;;;33.29;11.64;101624.34;5050534;28;20028;-57
2021/10/03 06:45:15;;;;;;;17.48;15.68;;;;;;;33.64;11.26;101648.69;5050813;28;20040;-57
2021/10/03 06:47:41;;;;;;;18.48;16.58;;;;;;;32.88;11.43;101646.16;5050278;28;20521;-56
2021/10/03 06:50:07;;;;;;;17.35;15.52;;;;;;;32.83;11.91;101642.34;5051542;28;20440;-57
2021/10/03 06:52:32;;;;;;;18.33;16.17;;;;;;;32.99;11.62;101607.63;5050836;28;20083;-54
2021/10/03 06:54:58;;;;;;;18.23;16.23;;;;;;;33.71;10.67;101642.19;5049506;28;20049;-58
2021/10/03 06:57:23;;;;;;;19.05;17.02;;;;;;;34.47;10.73;101634.16;5051842;28;20044;-55
2021/10/03 06:59:49;;;;;;;20.50;16.80;;;;;;;35.02;10.16;101639.66;5051513;28;20059;-53
2021/10/03 07:02:22;;;;;;;18.75;16.55;;;;;;;35.25;10.58;101655.47;5050381;28;20507;-58
2021/10/03 07:04:48;;;;;;;19.25;17.20;;;;;;;33.75;10.63;101648.97;5051763;28;20040;-56
2021/10/03 07:07:13;;;;;;;18.65;16.73;;;;;;;32.98;11.29;101640.06;5049404;28;20025;-57
2021/10/03 07:09:39;;;;;;;20.38;15.98;;;;;;;32.96;11.22;101639.44;5051466;28;20040;-56
2021/10/03 07:12:05;;;;;;;20.33;17.75;;;;;;;33.33;11.12;101642.25;5050927;28;20492;-54
2021/10/03 07:14:30;;;;;;;17.95;16.25;;;;;;;33.78;11.09;101638.25;5051266;28;20037;-57
2021/10/03 07:16:55;;;;;;;19.08;17.17;;;;;;;34.14;10.67;101630.03;5051264;28;20033;-56
2021/10/03 07:19:21;;;;;;;19.73;17.63;;;;;;;34.38;10.49;101646.75;5044395;28;20029;-58
2021/10/03 07:21:46;;;;;;;21.25;19.00;;;;;;;33.41;11.02;101604.13;5031093;28;20032;-57
2021/10/03 07:24:12;;;;;;;20.35;18.13;;;;;;;33.22;10.95;101640.22;5030976;28;20471;-54
2021/10/03 07:26:37;;;;;;;21.70;18.75;;;;;;;33.38;11.12;101641.50;5031246;28;20041;-56
2021/10/03 07:29:03;;;;;;;21.15;18.02;;;;;;;32.96;11.61;101624.75;5030170;28;20362;-56
2021/10/03 07:31:30;;;;;;;20.33;18.00;;;;;;;32.85;11.52;101645.75;5034826;28;20035;-56
2021/10/03 07:33:56;;;;;;;21.45;18.58;;;;;;;32.72;11.57;101646.72;5031066;28;20025;-57
2021/10/03 07:36:22;;;;;;;19.42;17.02;;;;;;;32.16;11.79;101639.06;5031631;28;20035;-56
2021/10/03 07:38:47;;;;;;;21.73;18.20;;;;;;;30.49;12.81;101619.19;5030957;28;20108;-56
2021/10/03 07:41:13;;;;;;;24.27;17.98;;;;;;;28.28;14.72;101619.91;5030621;28;20051;-55
2021/10/03 07:43:39;;;;;;;23.63;17.65;;;;;;;25.83;16.82;101640.44;5031702;28;20029;-54
2021/10/03 07:46:04;;;;;;;20.30;17.42;;;;;;;23.48;19.83;101630.84;5031024;28;20123;-54
2021/10/03 07:48:30;;;;;;;24.15;19.27;;;;;;;21.69;22.16;101639.16;5030824;28;20037;-57
2021/10/03 07:50:55;;;;;;;28.00;19.30;;;;;;;20.10;24.21;101634.22;5030740;28;20029;-57
2021/10/03 07:53:21;;;;;;;27.42;20.23;;;;;;;18.51;26.20;101635.41;5038132;28;20024;-57
2021/10/03 07:55:47;;;;;;;31.90;21.80;;;;;;;17.36;28.52;101627.75;5044308;28;20116;-53
2021/10/03 07:58:13;;;;;;;28.58;21.88;;;;;;;16.67;30.09;101642.16;5028990;28;20091;-56
2021/10/03 08:00:38;;;;;;;27.52;20.25;;;;;;;16.12;31.03;101621.94;5030127;28;20040;-55
2021/10/03 08:03:04;;;;;;;29.00;19.90;;;;;;;15.64;32.10;101631.72;5030196;28;20112;-57
2021/10/03 08:05:30;;;;;;;33.83;21.30;;;;;;;15.19;32.41;101632.25;5030556;28;20068;-55
2021/10/03 08:07:59;;;;;;;28.90;20.60;;;;;;;14.89;33.36;101643.34;5031198;28;20132;-57
2021/10/03 08:10:25;;;;;;;34.83;21.50;;;;;;;14.42;34.38;101642.97;5030933;28;20045;-58
2021/10/03 08:12:50;;;;;;;30.23;19.30;;;;;;;14.27;34.91;101637.63;5029509;28;20034;-56
2021/10/03 08:15:16;;;;;;;30.92;20.30;;;;;;;14.19;34.84;101640.84;5034939;28;20115;-54
2021/10/03 08:17:42;;;;;;;35.47;20.38;;;;;;;13.96;35.48;101638.81;5034618;28;20038;-53
2021/10/03 08:20:08;;;;;;;29.13;20.95;;;;;;;13.66;36.31;101629.97;5034814;28;20037;-56
2021/10/03 08:22:33;;;;;;;30.80;20.83;;;;;;;13.20;36.88;101598.75;5046748;28;20072;-57
2021/10/03 08:24:59;;;;;;;34.15;21.65;;;;;;;13.11;37.62;101639.69;5053822;28;20108;-54
2021/10/03 08:27:26;;;;;;;30.50;20.15;;;;;;;12.70;38.40;101611.72;5054628;28;20468;-61
2021/10/03 08:29:53;;;;;;;32.70;20.58;;;;;;;12.87;38.32;101645.63;5054065;28;20074;-55
2021/10/03 08:32:18;;;;;;;34.28;20.63;;;;;;;12.78;38.31;101615.66;5053917;28;20040;-58
2021/10/03 08:34:44;;;;;;;25.02;17.83;;;;;;;13.04;37.99;101653.53;5049548;28;20037;-55
2021/10/03 08:37:09;;;;;;;28.02;17.00;;;;;;;13.07;38.13;101637.19;5053729;28;20036;-52
2021/10/03 08:39:35;;;;;;;35.22;18.83;;;;;;;13.03;38.33;101643.72;5052498;28;20067;-54
2021/10/03 08:42:03;;;;;;;30.08;18.52;;;;;;;12.68;38.50;101603.75;5051001;28;20029;-55
2021/10/03 08:44:31;;;;;;;28.50;18.40;;;;;;;12.76;38.79;101639.06;5052537;28;20082;-54
2021/10/03 08:46:57;;;;;;;23.30;16.40;;;;;;;12.79;38.54;101648.78;5052466;28;20033;-57
2021/10/03 08:49:23;;;;;;;28.52;18.45;;;;;;;12.68;38.84;101646.72;5054240;28;20029;-55
2021/10/03 08:51:49;;;;;;;31.75;17.75;;;;;;;12.61;39.77;101648.06;5054130;28;20040;-56
2021/10/03 08:54:16;;;;;;;26.90;16.20;;;;;;;12.64;39.25;101661.31;5043719;28;20087;-56
2021/10/03 08:56:43;;;;;;;30.77;17.70;;;;;;;12.68;39.29;101656.63;5033993;28;20427;-56
2021/10/03 08:59:08;;;;;;;26.00;18.77;;;;;;;12.62;39.41;101647.97;5032485;28;20036;-57
2021/10/03 09:01:47;;;;;;;31.02;19.27;;;;;;;12.64;38.92;101653.25;5034447;28;20029;-55
2021/10/03 09:04:34;;;;;;;33.50;19.83;;;;;;;12.53;39.00;101667.34;5035303;28;20041;-55
2021/10/03 09:07:01;;;;;;;33.75;19.55;;;;;;;12.17;40.78;101655.97;5033774;28;20033;-53
2021/10/03 09:09:50;;;;;;;31.50;19.33;;;;;;;12.27;39.67;101652.75;5032922;28;20128;-55
2021/10/03 09:12:29;;;;;;;28.08;18.88;;;;;;;12.26;40.36;101661.75;5032949;28;20045;-54
2021/10/03 09:14:54;;;;;;;30.23;18.85;;;;;;;12.03;41.54;101650.53;5052559;28;20041;-52
2021/10/03 09:17:21;;;;;;;32.03;19.20;;;;;;;12.14;41.20;101652.59;5052082;28;20412;-57
2021/10/03 09:20:06;;;;;;;33.17;20.25;;;;;;;12.27;40.80;101650.06;5052384;28;20079;-53
2021/10/03 09:22:39;;;;;;;31.05;19.58;;;;;;;12.16;41.47;101645.31;5052490;28;20124;-55
2021/10/03 09:25:05;;;;;;;32.65;18.52;;;;;;;12.27;41.48;101647.38;5035822;28;20125;-55
2021/10/03 09:27:46;;;;;;;29.20;19.05;;;;;;;12.53;40.68;101644.97;5032439;28;20037;-56
2021/10/03 09:30:11;;;;;;;29.98;18.52;;;;;;;12.61;41.08;101664.19;5032679;28;20504;-55
2021/10/03 09:32:37;;;;;;;29.75;18.50;;;;;;;12.80;40.39;101655.88;5032869;28;20030;-51
2021/10/03 09:35:02;;;;;;;32.58;18.15;;;;;;;12.97;40.05;101649.47;5032902;28;20108;-53
2021/10/03 09:37:31;;;;;;;29.73;18.50;;;;;;;13.17;39.64;101652.75;5045925;28;20040;-51
2021/10/03 09:40:06;;;;;;;30.42;19.35;;;;;;;13.14;39.61;101604.53;5052815;28;20044;-53
2021/10/03 09:42:32;;;;;;;28.70;19.80;;;;;;;13.28;39.55;101650.25;5052175;28;20395;-56
2021/10/03 09:45:13;;;;;;;38.78;20.35;;;;;;;13.34;39.26;101649.88;5051887;28;20029;-56
2021/10/03 09:47:41;;;;;;;33.47;19.20;;;;;;;13.23;39.79;101646.97;5050141;28;20040;-50
2021/10/03 09:50:09;;;;;;;36.50;19.77;;;;;;;13.24;40.27;101647.84;5050623;28;20049;-53
2021/10/03 09:52:37;;;;;;;33.40;19.80;;;;;;;13.04;40.11;101610.50;5051530;28;20028;-54
2021/10/03 09:55:04;;;;;;;32.67;19.02;;;;;;;13.26;40.32;101646.81;5051795;28;20028;-52
2021/10/03 09:57:30;;;;;;;33.85;18.35;;;;;;;13.03;39.95;101614.16;5051561;28;20108;-53
2021/10/03 09:59:57;;;;;;;31.52;19.10;;;;;;;13.14;40.55;101645.75;5051614;28;20028;-55
2021/10/03 10:02:23;;;;;;;34.50;20.88;;;;;;;13.07;40.96;101645.25;5035261;28;20057;-55
2021/10/03 10:04:49;;;;;;;32.60;19.83;;;;;;;12.91;41.03;101644.47;5031775;28;20033;-56
2021/10/03 10:07:18;;;;;;;31.60;20.50;;;;;;;12.96;41.07;101631.59;4990660;28;1197612;-56
2021/10/03 10:09:48;;;;;;;38.97;20.85;;;;;;;12.97;41.09;101646.78;5031406;28;20390;-58
2021/10/03 10:12:16;;;;;;;30.25;19.75;;;;;;;12.94;41.13;101633.53;5032654;28;20068;-54
2021/10/03 10:14:45;;;;;;;32.85;20.08;;;;;;;12.90;41.18;101640.06;5033403;28;20428;-55
2021/10/03 10:17:31;;;;;;;34.60;19.88;;;;;;;12.87;41.07;101640.25;5032099;28;20041;-56
2021/10/03 10:20:01;;;;;;;28.80;18.02;;;;;;;12.66;41.66;101627.16;5032010;28;20036;-53
2021/10/03 10:22:34;;;;;;;31.73;17.98;;;;;;;12.72;41.75;101631.31;5032705;28;20535;-57
2021/10/03 10:25:08;;;;;;;29.10;18.92;;;;;;;12.82;42.03;101616.31;5032059;28;20030;-56
2021/10/03 10:27:33;;;;;;;34.17;19.50;;;;;;;12.92;41.62;101616.63;5049699;28;20087;-57
2021/10/03 10:30:05;;;;;;;30.05;18.98;;;;;;;13.02;41.42;101612.41;5052508;28;20032;-57
2021/10/03 10:32:52;;;;;;;32.85;18.73;;;;;;;13.14;41.44;101626.03;5052259;28;20033;-58
2021/10/03 10:35:18;;;;;;;27.45;16.10;;;;;;;13.19;40.86;101599.72;5051098;28;20037;-54
2021/10/03 10:37:50;;;;;;;24.58;15.45;;;;;;;13.23;40.68;101609.31;5048543;28;20488;-54
2021/10/03 10:40:21;;;;;;;19.45;13.25;;;;;;;13.20;40.10;101609.50;5032429;28;20041;-54
2021/10/03 10:43:07;;;;;;;22.88;13.70;;;;;;;13.00;40.49;101602.72;5031559;28;20091;-54
2021/10/03 10:45:43;;;;;;;18.95;12.63;;;;;;;12.78;41.47;101604.91;5030608;28;20049;-55
2021/10/03 10:48:09;;;;;;;23.90;12.73;;;;;;;12.78;41.50;101602.22;5030619;28;20551;-58
2021/10/03 10:50:43;;;;;;;20.33;13.60;;;;;;;12.81;41.36;101608.38;5036758;28;20038;-57
2021/10/03 10:53:16;;;;;;;21.00;12.85;;;;;;;12.71;41.65;101605.38;5031510;28;20067;-54
2021/10/03 10:55:42;;;;;;;18.77;12.02;;;;;;;12.54;41.85;101601.00;5030707;28;20037;-51
2021/10/03 10:58:09;;;;;;;18.40;12.07;;;;;;;12.55;41.92;101594.72;5032015;28;20057;-56
2021/10/03 11:01:12;;;;;;;23.75;12.50;;;;;;;12.65;41.61;101612.00;5031716;28;20437;-56
2021/10/03 11:03:41;;;;;;;20.88;11.48;;;;;;;12.54;41.91;101590.25;5032547;28;21440;-53
2021/10/03 11:06:07;;;;;;;19.27;12.13;;;;;;;12.35;42.08;101581.50;5031465;28;20037;-53
2021/10/03 11:08:32;;;;;;;23.20;11.35;;;;;;;12.47;42.10;101595.16;5031787;28;20062;-56
2021/10/03 11:11:01;;;;;;;18.92;12.27;;;;;;;12.45;42.18;101576.44;5031456;28;20128;-54